createdAt,value
2016-10-19T00:00:19.285Z,86.64
2016-10-19T00:00:41.010Z,86.34
2016-10-19T00:01:02.727Z,86.15
2016-10-19T00:01:24.447Z,86.64
2016-10-19T00:01:46.183Z,86.93
2016-10-19T00:02:07.899Z,86.79
2016-10-19T00:02:29.651Z,86.46
2016-10-19T00:02:51.375Z,86.39
2016-10-19T00:03:13.105Z,86.49
2016-10-19T00:03:34.826Z,86.57
2016-10-19T00:03:56.539Z,86.44
2016-10-19T00:04:18.265Z,86.81
2016-10-19T00:04:39.999Z,86.93
2016-10-19T00:05:01.720Z,86.93
2016-10-19T00:05:23.447Z,86.77
2016-10-19T00:05:45.163Z,86.72
2016-10-19T00:06:06.886Z,86.92
2016-10-19T00:06:28.606Z,86.92
2016-10-19T00:06:50.338Z,86.93
2016-10-19T00:07:12.059Z,86.83
2016-10-19T00:07:33.780Z,87.03
2016-10-19T00:07:55.499Z,87.29
2016-10-19T00:08:17.222Z,87.46
2016-10-19T00:08:38.947Z,87.54
2016-10-19T00:09:00.670Z,87.29
2016-10-19T00:09:22.400Z,87.34
2016-10-19T00:09:44.120Z,87.29
2016-10-19T00:10:05.838Z,87.41
2016-10-19T00:10:27.553Z,87.52
2016-10-19T00:10:49.266Z,87.31
2016-10-19T00:11:10.988Z,86.97
2016-10-19T00:11:32.708Z,86.84
2016-10-19T00:11:54.432Z,86.95
2016-10-19T00:12:16.154Z,86.89
2016-10-19T00:12:37.880Z,86.78
2016-10-19T00:12:59.594Z,86.93
2016-10-19T00:13:21.306Z,86.95
2016-10-19T00:13:43.026Z,87.19
2016-10-19T00:14:04.740Z,87.52
2016-10-19T00:14:26.458Z,87.89
2016-10-19T00:14:48.176Z,87.95
2016-10-19T00:15:09.893Z,88.04
2016-10-19T00:15:31.619Z,88.01
2016-10-19T00:15:53.358Z,87.69
2016-10-19T00:16:15.069Z,87.83
2016-10-19T00:16:36.798Z,87.99
2016-10-19T00:16:58.515Z,88.04
2016-10-19T00:17:20.231Z,88.23
2016-10-19T00:17:41.953Z,88.46
2016-10-19T00:18:03.686Z,88.42
2016-10-19T00:18:25.404Z,88.38
2016-10-19T00:18:47.128Z,88.50
2016-10-19T00:19:08.836Z,88.50
2016-10-19T00:19:30.551Z,88.58
2016-10-19T00:19:52.271Z,88.48
2016-10-19T00:20:13.986Z,88.53
2016-10-19T00:20:35.705Z,88.58
2016-10-19T00:20:57.428Z,88.76
2016-10-19T00:21:19.152Z,88.97
2016-10-19T00:21:40.867Z,88.92
2016-10-19T00:22:02.583Z,88.78
2016-10-19T00:22:24.298Z,88.54
2016-10-19T00:22:46.022Z,88.67
2016-10-19T00:23:07.739Z,88.68
2016-10-19T00:23:29.459Z,88.75
2016-10-19T00:23:51.190Z,88.98
2016-10-19T00:24:12.906Z,88.92
2016-10-19T00:24:34.622Z,88.84
2016-10-19T00:24:56.346Z,88.68
2016-10-19T00:25:18.061Z,88.78
2016-10-19T00:25:39.782Z,88.92
2016-10-19T00:26:01.504Z,88.76
2016-10-19T00:26:23.225Z,88.95
2016-10-19T00:26:44.934Z,88.65
2016-10-19T00:27:06.663Z,88.91
2016-10-19T00:27:28.386Z,88.84
2016-10-19T00:27:50.111Z,88.69
2016-10-19T00:28:11.838Z,88.48
2016-10-19T00:28:33.561Z,88.59
2016-10-19T00:28:55.277Z,88.43
2016-10-19T00:29:16.994Z,88.15
2016-10-19T00:29:38.713Z,87.78
2016-10-19T00:30:00.431Z,87.94
2016-10-19T00:30:22.169Z,88.05
2016-10-19T00:30:43.887Z,88.24
2016-10-19T00:31:05.607Z,88.49
2016-10-19T00:31:27.352Z,88.58
2016-10-19T00:31:49.069Z,88.70
2016-10-19T00:32:10.786Z,88.56
2016-10-19T00:32:32.509Z,88.21
2016-10-19T00:32:54.232Z,88.54
2016-10-19T00:33:15.953Z,88.77
2016-10-19T00:33:37.671Z,88.25
2016-10-19T00:33:59.390Z,88.34
2016-10-19T00:34:21.113Z,88.12
2016-10-19T00:34:42.847Z,88.21
2016-10-19T00:35:04.566Z,88.24
2016-10-19T00:35:26.293Z,88.04
2016-10-19T00:35:52.780Z,87.82
2016-10-19T00:36:14.495Z,87.81
2016-10-19T00:36:36.205Z,88.16
2016-10-19T00:36:57.923Z,88.17
2016-10-19T00:37:19.646Z,88.29
2016-10-19T00:37:41.370Z,88.10
2016-10-19T00:38:03.086Z,88.10
2016-10-19T00:38:24.805Z,87.91
2016-10-19T00:38:46.522Z,88.14
2016-10-19T00:39:08.244Z,88.33
2016-10-19T00:39:29.960Z,88.24
2016-10-19T00:39:51.683Z,88.22
2016-10-19T00:40:13.406Z,88.36
2016-10-19T00:40:35.126Z,88.27
2016-10-19T00:40:56.844Z,88.36
2016-10-19T00:41:18.555Z,88.21
2016-10-19T00:41:40.277Z,88.22
2016-10-19T00:42:02.112Z,87.98
2016-10-19T00:42:23.826Z,88.09
2016-10-19T00:42:45.559Z,87.94
2016-10-19T00:43:07.276Z,87.87
2016-10-19T00:43:29.000Z,88.01
2016-10-19T00:43:50.726Z,88.34
2016-10-19T00:44:12.466Z,88.14
2016-10-19T00:44:34.192Z,88.32
2016-10-19T00:44:55.909Z,87.78
2016-10-19T00:45:17.629Z,87.96
2016-10-19T00:45:39.358Z,87.97
2016-10-19T00:46:01.077Z,88.01
2016-10-19T00:46:22.894Z,88.04
2016-10-19T00:46:44.613Z,88.20
2016-10-19T00:47:06.334Z,88.19
2016-10-19T00:47:28.051Z,88.19
2016-10-19T00:47:49.772Z,88.13
2016-10-19T00:48:11.490Z,87.83
2016-10-19T00:48:33.212Z,87.97
2016-10-19T00:48:54.941Z,87.42
2016-10-19T00:49:16.655Z,87.60
2016-10-19T00:49:38.370Z,87.52
2016-10-19T00:50:00.088Z,87.24
2016-10-19T00:50:21.807Z,87.12
2016-10-19T00:50:43.525Z,86.91
2016-10-19T00:51:05.245Z,87.11
2016-10-19T00:51:26.964Z,86.94
2016-10-19T00:51:48.692Z,86.85
2016-10-19T00:52:10.412Z,86.75
2016-10-19T00:52:32.141Z,87.07
2016-10-19T00:52:53.855Z,87.18
2016-10-19T00:53:15.571Z,87.51
2016-10-19T00:53:37.288Z,87.22
2016-10-19T00:53:59.020Z,87.29
2016-10-19T00:54:20.733Z,87.41
2016-10-19T00:54:42.461Z,87.25
2016-10-19T00:55:04.181Z,87.04
2016-10-19T00:55:25.922Z,87.12
2016-10-19T00:55:47.654Z,87.46
2016-10-19T00:56:09.372Z,87.21
2016-10-19T00:56:31.096Z,87.19
2016-10-19T00:56:52.812Z,87.06
2016-10-19T00:57:14.531Z,87.21
2016-10-19T00:57:36.246Z,87.15
2016-10-19T00:57:57.967Z,86.93
2016-10-19T00:58:19.686Z,87.24
2016-10-19T00:58:41.404Z,87.19
2016-10-19T00:59:03.118Z,86.96
2016-10-19T00:59:24.838Z,87.23
2016-10-19T00:59:46.581Z,86.84
2016-10-19T01:00:08.305Z,86.67
2016-10-19T01:00:30.027Z,86.63
2016-10-19T01:00:51.751Z,86.59
2016-10-19T01:01:13.471Z,86.47
2016-10-19T01:01:35.188Z,86.53
2016-10-19T01:01:56.903Z,86.44
2016-10-19T01:02:18.619Z,86.46
2016-10-19T01:02:40.347Z,86.70
2016-10-19T01:03:02.059Z,86.81
2016-10-19T01:03:23.781Z,86.49
2016-10-19T01:03:45.502Z,86.19
2016-10-19T01:04:07.215Z,86.37
2016-10-19T01:04:28.935Z,86.44
2016-10-19T01:04:50.658Z,86.31
2016-10-19T01:05:12.375Z,86.35
2016-10-19T01:05:34.106Z,86.20
2016-10-19T01:05:55.834Z,85.83
2016-10-19T01:06:17.546Z,85.95
2016-10-19T01:06:39.265Z,86.14
2016-10-19T01:07:00.997Z,86.14
2016-10-19T01:07:22.703Z,86.04
2016-10-19T01:07:44.425Z,85.87
2016-10-19T01:08:06.142Z,85.71
2016-10-19T01:08:27.860Z,85.86
2016-10-19T01:08:49.581Z,86.02
2016-10-19T01:09:11.308Z,86.07
2016-10-19T01:09:33.027Z,85.78
2016-10-19T01:09:54.735Z,85.77
2016-10-19T01:10:16.468Z,85.76
2016-10-19T01:10:38.184Z,86.27
2016-10-19T01:10:59.966Z,86.02
2016-10-19T01:11:21.687Z,86.11
2016-10-19T01:11:43.405Z,86.12
2016-10-19T01:12:05.125Z,86.34
2016-10-19T01:12:26.841Z,86.44
2016-10-19T01:12:48.555Z,86.07
2016-10-19T01:13:10.273Z,86.03
2016-10-19T01:13:32.002Z,86.20
2016-10-19T01:13:53.721Z,86.56
2016-10-19T01:14:15.439Z,86.46
2016-10-19T01:14:37.168Z,86.42
2016-10-19T01:14:58.890Z,86.64
2016-10-19T01:15:20.608Z,86.64
2016-10-19T01:15:42.342Z,86.29
2016-10-19T01:16:04.067Z,86.21
2016-10-19T01:16:25.788Z,86.25
2016-10-19T01:16:47.501Z,86.28
2016-10-19T01:17:09.216Z,86.50
2016-10-19T01:17:30.936Z,86.64
2016-10-19T01:17:52.685Z,86.80
2016-10-19T01:18:14.396Z,86.74
2016-10-19T01:18:36.123Z,86.53
2016-10-19T01:18:57.842Z,86.57
2016-10-19T01:19:19.556Z,86.44
2016-10-19T01:19:41.272Z,86.38
2016-10-19T01:20:03.009Z,86.31
2016-10-19T01:20:24.733Z,86.33
2016-10-19T01:20:46.446Z,86.11
2016-10-19T01:21:08.162Z,86.10
2016-10-19T01:21:29.882Z,86.50
2016-10-19T01:21:51.799Z,86.44
2016-10-19T01:22:13.512Z,86.94
2016-10-19T01:22:35.235Z,87.20
2016-10-19T01:22:56.948Z,87.25
2016-10-19T01:23:18.668Z,87.48
2016-10-19T01:23:40.388Z,87.10
2016-10-19T01:24:02.100Z,86.89
2016-10-19T01:24:23.840Z,86.85
2016-10-19T01:24:45.569Z,86.95
2016-10-19T01:25:07.289Z,86.96
2016-10-19T01:25:29.003Z,87.09
2016-10-19T01:25:50.717Z,87.21
2016-10-19T01:26:12.433Z,87.09
2016-10-19T01:26:34.153Z,86.78
2016-10-19T01:26:55.892Z,86.56
2016-10-19T01:27:17.617Z,86.63
2016-10-19T01:27:39.341Z,86.73
2016-10-19T01:28:01.053Z,86.82
2016-10-19T01:28:22.773Z,86.82
2016-10-19T01:28:44.492Z,86.62
2016-10-19T01:29:06.218Z,86.98
2016-10-19T01:29:27.940Z,87.11
2016-10-19T01:29:49.651Z,87.05
2016-10-19T01:30:11.372Z,86.80
2016-10-19T01:30:33.094Z,87.08
2016-10-19T01:30:54.819Z,86.81
2016-10-19T01:31:16.540Z,86.55
2016-10-19T01:31:38.255Z,86.46
2016-10-19T01:31:59.974Z,86.73
2016-10-19T01:32:21.691Z,86.82
2016-10-19T01:32:43.410Z,86.49
2016-10-19T01:33:05.126Z,86.66
2016-10-19T01:33:26.844Z,86.70
2016-10-19T01:33:48.563Z,86.86
2016-10-19T01:34:10.284Z,87.10
2016-10-19T01:34:32.007Z,86.82
2016-10-19T01:34:53.731Z,86.61
2016-10-19T01:35:15.456Z,86.45
2016-10-19T01:35:37.166Z,86.38
2016-10-19T01:35:59.010Z,86.23
2016-10-19T01:36:20.728Z,86.31
2016-10-19T01:36:42.444Z,86.61
2016-10-19T01:37:04.169Z,86.54
2016-10-19T01:37:25.899Z,86.53
2016-10-19T01:37:47.628Z,86.54
2016-10-19T01:38:09.366Z,86.41
2016-10-19T01:38:31.091Z,86.07
2016-10-19T01:38:52.806Z,86.20
2016-10-19T01:39:14.524Z,86.17
2016-10-19T01:39:36.246Z,86.13
2016-10-19T01:39:57.959Z,86.68
2016-10-19T01:40:19.742Z,86.71
2016-10-19T01:40:41.460Z,86.91
2016-10-19T01:41:03.182Z,86.66
2016-10-19T01:41:24.890Z,86.41
2016-10-19T01:41:46.632Z,86.36
2016-10-19T01:42:08.329Z,86.27
2016-10-19T01:42:30.050Z,86.36
2016-10-19T01:42:51.771Z,86.54
2016-10-19T01:43:13.488Z,86.77
2016-10-19T01:43:35.209Z,86.67
2016-10-19T01:43:56.932Z,86.63
2016-10-19T01:44:18.645Z,86.45
2016-10-19T01:44:40.364Z,86.46
2016-10-19T01:45:02.082Z,87.11
2016-10-19T01:45:23.803Z,87.02
2016-10-19T01:45:45.520Z,86.94
2016-10-19T01:46:07.240Z,86.65
2016-10-19T01:46:28.960Z,86.64
2016-10-19T01:46:50.679Z,86.50
2016-10-19T01:47:12.402Z,86.38
2016-10-19T01:47:34.141Z,86.37
2016-10-19T01:47:55.856Z,86.12
2016-10-19T01:48:17.576Z,86.46
2016-10-19T01:48:39.291Z,86.48
2016-10-19T01:49:01.011Z,86.16
2016-10-19T01:49:22.724Z,86.12
2016-10-19T01:49:44.444Z,85.87
2016-10-19T01:50:06.161Z,86.06
2016-10-19T01:50:27.881Z,86.23
2016-10-19T01:50:49.592Z,86.55
2016-10-19T01:51:11.310Z,86.07
2016-10-19T01:51:33.038Z,86.11
2016-10-19T01:51:54.753Z,85.86
2016-10-19T01:52:16.471Z,86.04
2016-10-19T01:52:38.192Z,86.09
2016-10-19T01:52:59.919Z,85.96
2016-10-19T01:53:21.640Z,85.30
2016-10-19T01:53:43.357Z,85.36
2016-10-19T01:54:05.073Z,85.17
2016-10-19T01:54:26.795Z,85.11
2016-10-19T01:54:48.514Z,84.75
2016-10-19T01:55:10.229Z,84.78
2016-10-19T01:55:31.953Z,84.36
2016-10-19T01:55:53.673Z,84.37
2016-10-19T01:56:15.387Z,84.23
2016-10-19T01:56:37.112Z,84.34
2016-10-19T01:56:58.823Z,84.12
2016-10-19T01:57:20.566Z,83.69
2016-10-19T01:57:42.320Z,84.04
2016-10-19T01:58:04.044Z,84.69
2016-10-19T01:58:25.754Z,84.66
2016-10-19T01:58:47.471Z,84.63
2016-10-19T01:59:09.204Z,84.72
2016-10-19T01:59:30.916Z,84.70
2016-10-19T01:59:52.644Z,84.74
2016-10-19T02:00:14.362Z,84.75
2016-10-19T02:00:36.076Z,84.58
2016-10-19T02:00:57.803Z,84.59
2016-10-19T02:01:19.522Z,84.83
2016-10-19T02:01:41.242Z,84.82
2016-10-19T02:02:02.962Z,84.44
2016-10-19T02:02:24.677Z,84.31
2016-10-19T02:02:46.401Z,84.15
2016-10-19T02:03:08.116Z,84.33
2016-10-19T02:03:29.837Z,84.51
2016-10-19T02:03:51.554Z,84.66
2016-10-19T02:04:13.271Z,84.29
2016-10-19T02:04:35.000Z,84.21
2016-10-19T02:04:56.846Z,84.66
2016-10-19T02:05:18.563Z,84.51
2016-10-19T02:05:40.280Z,84.41
2016-10-19T02:06:02.000Z,84.46
2016-10-19T02:06:23.712Z,84.67
2016-10-19T02:06:45.434Z,84.51
2016-10-19T02:07:07.156Z,84.20
2016-10-19T02:07:28.871Z,84.32
2016-10-19T02:07:50.583Z,84.27
2016-10-19T02:08:12.308Z,84.07
2016-10-19T02:08:34.029Z,83.97
2016-10-19T02:08:55.748Z,84.45
2016-10-19T02:09:17.478Z,84.52
2016-10-19T02:09:39.263Z,84.29
2016-10-19T02:10:00.985Z,84.43
2016-10-19T02:10:22.708Z,84.36
2016-10-19T02:10:44.432Z,84.10
2016-10-19T02:11:06.166Z,83.88
2016-10-19T02:11:27.888Z,84.04
2016-10-19T02:11:49.606Z,83.88
2016-10-19T02:12:11.323Z,83.84
2016-10-19T02:12:33.046Z,83.79
2016-10-19T02:12:54.756Z,84.39
2016-10-19T02:13:16.475Z,84.41
2016-10-19T02:13:38.193Z,84.55
2016-10-19T02:13:59.908Z,84.35
2016-10-19T02:14:21.645Z,83.99
2016-10-19T02:14:43.358Z,84.10
2016-10-19T02:15:05.098Z,84.43
2016-10-19T02:15:26.814Z,84.03
2016-10-19T02:15:48.528Z,84.01
2016-10-19T02:16:10.250Z,83.79
2016-10-19T02:16:31.962Z,83.76
2016-10-19T02:16:53.671Z,83.90
2016-10-19T02:17:15.382Z,83.85
2016-10-19T02:17:37.105Z,83.71
2016-10-19T02:17:58.821Z,83.77
2016-10-19T02:18:20.541Z,83.76
2016-10-19T02:18:42.257Z,83.79
2016-10-19T02:19:03.972Z,84.00
2016-10-19T02:19:25.706Z,84.08
2016-10-19T02:19:47.419Z,83.85
2016-10-19T02:20:09.132Z,83.96
2016-10-19T02:20:30.861Z,83.65
2016-10-19T02:20:52.580Z,84.04
2016-10-19T02:21:14.301Z,84.07
2016-10-19T02:21:36.023Z,84.40
2016-10-19T02:21:57.735Z,84.21
2016-10-19T02:22:19.472Z,84.17
2016-10-19T02:22:41.192Z,83.99
2016-10-19T02:23:02.916Z,84.23
2016-10-19T02:23:24.635Z,84.08
2016-10-19T02:23:46.346Z,83.79
2016-10-19T02:24:08.065Z,83.74
2016-10-19T02:24:29.781Z,83.74
2016-10-19T02:24:51.503Z,83.76
2016-10-19T02:25:13.227Z,83.88
2016-10-19T02:25:34.945Z,83.76
2016-10-19T02:25:56.673Z,83.86
2016-10-19T02:26:18.389Z,83.85
2016-10-19T02:26:40.109Z,83.90
2016-10-19T02:27:01.823Z,83.98
2016-10-19T02:27:23.555Z,83.65
2016-10-19T02:27:45.295Z,83.83
2016-10-19T02:28:11.790Z,83.70
2016-10-19T02:28:33.517Z,83.70
2016-10-19T02:28:55.233Z,83.85
2016-10-19T02:29:16.942Z,83.83
2016-10-19T02:29:38.658Z,83.57
2016-10-19T02:30:00.392Z,83.58
2016-10-19T02:30:22.108Z,83.81
2016-10-19T02:30:43.831Z,83.76
2016-10-19T02:31:05.548Z,83.82
2016-10-19T02:31:27.260Z,83.80
2016-10-19T02:31:48.986Z,83.48
2016-10-19T02:32:10.708Z,83.54
2016-10-19T02:32:32.427Z,83.43
2016-10-19T02:32:54.141Z,83.45
2016-10-19T02:33:15.889Z,83.85
2016-10-19T02:33:37.590Z,84.10
2016-10-19T02:33:59.304Z,83.62
2016-10-19T02:34:21.019Z,83.60
2016-10-19T02:34:42.737Z,83.38
2016-10-19T02:35:04.457Z,83.17
2016-10-19T02:35:26.177Z,83.11
2016-10-19T02:35:48.018Z,83.18
2016-10-19T02:36:09.731Z,83.32
2016-10-19T02:36:31.454Z,83.40
2016-10-19T02:36:53.172Z,83.39
2016-10-19T02:37:14.890Z,83.24
2016-10-19T02:37:36.623Z,83.33
2016-10-19T02:37:58.334Z,83.48
2016-10-19T02:38:20.059Z,83.24
2016-10-19T02:38:41.778Z,83.28
2016-10-19T02:39:03.491Z,83.36
2016-10-19T02:39:25.228Z,83.31
2016-10-19T02:39:46.940Z,83.56
2016-10-19T02:40:08.738Z,84.05
2016-10-19T02:40:30.458Z,83.91
2016-10-19T02:40:52.175Z,84.27
2016-10-19T02:41:13.896Z,84.51
2016-10-19T02:41:35.622Z,84.90
2016-10-19T02:41:57.351Z,85.16
2016-10-19T02:42:19.072Z,84.92
2016-10-19T02:42:40.794Z,84.68
2016-10-19T02:43:02.515Z,84.75
2016-10-19T02:43:24.244Z,85.03
2016-10-19T02:43:45.962Z,85.06
2016-10-19T02:44:07.680Z,84.82
2016-10-19T02:44:29.399Z,85.03
2016-10-19T02:44:51.115Z,84.95
2016-10-19T02:45:12.834Z,84.47
2016-10-19T02:45:34.552Z,84.68
2016-10-19T02:45:56.276Z,84.58
2016-10-19T02:46:17.995Z,84.99
2016-10-19T02:46:39.712Z,85.11
2016-10-19T02:47:01.435Z,85.15
2016-10-19T02:47:23.157Z,85.19
2016-10-19T02:47:44.871Z,85.31
2016-10-19T02:48:06.594Z,85.68
2016-10-19T02:48:28.308Z,85.96
2016-10-19T02:48:50.028Z,85.85
2016-10-19T02:49:11.746Z,85.77
2016-10-19T02:49:33.464Z,85.61
2016-10-19T02:49:55.181Z,85.42
2016-10-19T02:50:16.896Z,85.64
2016-10-19T02:50:38.619Z,85.69
2016-10-19T02:51:00.339Z,85.45
2016-10-19T02:51:22.056Z,85.51
2016-10-19T02:51:43.792Z,85.91
2016-10-19T02:52:05.509Z,85.66
2016-10-19T02:52:27.231Z,85.54
2016-10-19T02:52:48.962Z,85.23
2016-10-19T02:53:10.678Z,85.16
2016-10-19T02:53:32.416Z,85.09
2016-10-19T02:53:54.107Z,85.23
2016-10-19T02:54:15.816Z,85.04
2016-10-19T02:54:37.540Z,85.19
2016-10-19T02:54:59.253Z,85.51
2016-10-19T02:55:20.981Z,85.58
2016-10-19T02:55:42.700Z,85.80
2016-10-19T02:56:04.437Z,85.94
2016-10-19T02:56:26.158Z,86.12
2016-10-19T02:56:47.870Z,85.99
2016-10-19T02:57:09.584Z,85.79
2016-10-19T02:57:31.305Z,85.63
2016-10-19T02:57:53.029Z,85.68
2016-10-19T02:58:14.756Z,85.72
2016-10-19T02:58:36.474Z,85.58
2016-10-19T02:58:58.194Z,85.76
2016-10-19T02:59:19.918Z,85.87
2016-10-19T02:59:41.634Z,86.06
2016-10-19T03:00:03.354Z,85.61
2016-10-19T03:00:25.091Z,85.71
2016-10-19T03:00:46.802Z,85.86
2016-10-19T03:01:08.531Z,85.60
2016-10-19T03:01:30.246Z,85.83
2016-10-19T03:01:51.979Z,85.73
2016-10-19T03:02:13.700Z,85.63
2016-10-19T03:02:35.426Z,85.56
2016-10-19T03:02:57.148Z,85.42
2016-10-19T03:03:18.865Z,85.39
2016-10-19T03:03:40.583Z,85.54
2016-10-19T03:04:02.303Z,85.28
2016-10-19T03:04:24.030Z,85.20
2016-10-19T03:04:45.744Z,84.92
2016-10-19T03:05:07.550Z,85.12
2016-10-19T03:05:29.266Z,85.38
2016-10-19T03:05:50.982Z,85.86
2016-10-19T03:06:12.715Z,85.69
2016-10-19T03:06:34.435Z,85.63
2016-10-19T03:06:56.162Z,85.97
2016-10-19T03:07:17.884Z,86.12
2016-10-19T03:07:39.603Z,86.06
2016-10-19T03:08:01.318Z,86.07
2016-10-19T03:08:23.039Z,85.95
2016-10-19T03:08:44.757Z,85.70
2016-10-19T03:09:06.472Z,86.04
2016-10-19T03:09:28.192Z,86.27
2016-10-19T03:09:49.907Z,86.20
2016-10-19T03:10:11.638Z,86.24
2016-10-19T03:10:33.374Z,86.22
2016-10-19T03:10:55.080Z,86.41
2016-10-19T03:11:16.804Z,86.30
2016-10-19T03:11:38.522Z,86.51
2016-10-19T03:12:00.245Z,86.85
2016-10-19T03:12:21.964Z,86.73
2016-10-19T03:12:43.681Z,86.98
2016-10-19T03:13:05.401Z,87.15
2016-10-19T03:13:27.119Z,87.14
2016-10-19T03:13:48.850Z,86.82
2016-10-19T03:14:10.575Z,86.32
2016-10-19T03:14:32.309Z,86.24
2016-10-19T03:14:54.027Z,86.13
2016-10-19T03:15:15.756Z,85.85
2016-10-19T03:15:37.485Z,86.01
2016-10-19T03:15:59.200Z,86.28
2016-10-19T03:16:20.924Z,86.57
2016-10-19T03:16:42.644Z,86.80
2016-10-19T03:17:04.353Z,86.90
2016-10-19T03:17:26.070Z,87.23
2016-10-19T03:17:47.786Z,87.17
2016-10-19T03:18:09.511Z,87.20
2016-10-19T03:18:31.229Z,87.13
2016-10-19T03:18:52.944Z,87.32
2016-10-19T03:19:14.658Z,87.30
2016-10-19T03:19:36.383Z,87.31
2016-10-19T03:19:58.094Z,87.51
2016-10-19T03:20:19.810Z,87.56
2016-10-19T03:20:41.529Z,87.58
2016-10-19T03:21:03.249Z,87.78
2016-10-19T03:21:24.970Z,88.13
2016-10-19T03:21:46.687Z,88.05
2016-10-19T03:22:08.405Z,87.84
2016-10-19T03:22:30.126Z,87.91
2016-10-19T03:22:51.891Z,88.02
2016-10-19T03:23:13.608Z,88.08
2016-10-19T03:23:35.332Z,88.45
2016-10-19T03:23:57.051Z,88.49
2016-10-19T03:24:18.765Z,88.55
2016-10-19T03:24:40.486Z,88.44
2016-10-19T03:25:02.207Z,88.20
2016-10-19T03:25:23.943Z,88.08
2016-10-19T03:25:45.660Z,88.03
2016-10-19T03:26:07.376Z,88.31
2016-10-19T03:26:29.095Z,88.45
2016-10-19T03:26:50.815Z,88.63
2016-10-19T03:27:12.532Z,88.58
2016-10-19T03:27:34.257Z,88.48
2016-10-19T03:27:55.987Z,88.67
2016-10-19T03:28:17.705Z,88.37
2016-10-19T03:28:39.440Z,87.94
2016-10-19T03:29:01.150Z,87.60
2016-10-19T03:29:22.880Z,87.54
2016-10-19T03:29:44.614Z,87.22
2016-10-19T03:30:06.331Z,87.45
2016-10-19T03:30:28.054Z,87.47
2016-10-19T03:30:49.768Z,87.64
2016-10-19T03:31:11.495Z,87.57
2016-10-19T03:31:33.235Z,87.40
2016-10-19T03:31:54.950Z,87.66
2016-10-19T03:32:16.668Z,87.80
2016-10-19T03:32:38.384Z,87.66
2016-10-19T03:33:00.113Z,87.39
2016-10-19T03:33:21.831Z,87.24
2016-10-19T03:33:43.552Z,86.90
2016-10-19T03:34:05.308Z,87.01
2016-10-19T03:34:27.160Z,86.79
2016-10-19T03:34:48.877Z,86.89
2016-10-19T03:35:10.618Z,87.02
2016-10-19T03:35:32.331Z,87.32
2016-10-19T03:35:54.050Z,87.45
2016-10-19T03:36:15.769Z,87.78
2016-10-19T03:36:37.501Z,88.05
2016-10-19T03:36:59.216Z,88.11
2016-10-19T03:37:20.932Z,88.12
2016-10-19T03:37:42.647Z,87.84
2016-10-19T03:38:04.360Z,87.78
2016-10-19T03:38:26.079Z,88.17
2016-10-19T03:38:47.826Z,87.93
2016-10-19T03:39:09.549Z,87.56
2016-10-19T03:39:31.266Z,87.61
2016-10-19T03:39:52.980Z,87.63
2016-10-19T03:40:14.707Z,87.31
2016-10-19T03:40:36.429Z,87.18
2016-10-19T03:40:58.144Z,87.42
2016-10-19T03:41:19.882Z,87.61
2016-10-19T03:41:41.601Z,87.91
2016-10-19T03:42:03.322Z,87.84
2016-10-19T03:42:25.037Z,87.58
2016-10-19T03:42:46.753Z,87.62
2016-10-19T03:43:08.471Z,87.90
2016-10-19T03:43:30.185Z,87.57
2016-10-19T03:43:51.899Z,87.18
2016-10-19T03:44:13.622Z,87.05
2016-10-19T03:44:35.349Z,87.06
2016-10-19T03:44:57.070Z,86.93
2016-10-19T03:45:18.786Z,87.17
2016-10-19T03:45:40.498Z,87.09
2016-10-19T03:46:02.218Z,87.11
2016-10-19T03:46:23.950Z,86.96
2016-10-19T03:46:45.674Z,87.21
2016-10-19T03:47:07.402Z,87.60
2016-10-19T03:47:29.117Z,87.57
2016-10-19T03:47:50.831Z,87.58
2016-10-19T03:48:12.549Z,87.85
2016-10-19T03:48:34.282Z,88.02
2016-10-19T03:48:56.004Z,87.74
2016-10-19T03:49:17.735Z,87.59
2016-10-19T03:49:39.455Z,87.75
2016-10-19T03:50:01.177Z,87.91
2016-10-19T03:50:22.908Z,87.93
2016-10-19T03:50:44.627Z,87.92
2016-10-19T03:51:06.343Z,88.04
2016-10-19T03:51:28.063Z,87.96
2016-10-19T03:51:49.788Z,88.08
2016-10-19T03:52:11.527Z,88.12
2016-10-19T03:52:33.220Z,88.25
2016-10-19T03:52:54.938Z,87.97
2016-10-19T03:53:16.651Z,88.12
2016-10-19T03:53:38.370Z,88.01
2016-10-19T03:54:00.090Z,87.94
2016-10-19T03:54:21.812Z,88.22
2016-10-19T03:54:43.551Z,88.39
2016-10-19T03:55:05.265Z,88.46
2016-10-19T03:55:26.981Z,88.40
2016-10-19T03:55:48.698Z,88.73
2016-10-19T03:56:10.415Z,88.94
2016-10-19T03:56:32.136Z,88.69
2016-10-19T03:56:53.858Z,88.68
2016-10-19T03:57:15.574Z,88.84
2016-10-19T03:57:37.294Z,88.98
2016-10-19T03:57:59.011Z,88.90
2016-10-19T03:58:20.729Z,88.78
2016-10-19T03:58:42.448Z,88.69
2016-10-19T03:59:04.168Z,88.33
2016-10-19T03:59:25.884Z,87.88
2016-10-19T03:59:47.614Z,87.89
2016-10-19T04:00:09.338Z,88.01
2016-10-19T04:00:31.054Z,88.10
2016-10-19T04:00:52.781Z,87.93
2016-10-19T04:01:14.496Z,87.71
2016-10-19T04:01:36.219Z,87.78
2016-10-19T04:01:57.941Z,87.41
2016-10-19T04:02:19.666Z,87.18
2016-10-19T04:02:41.379Z,86.78
2016-10-19T04:03:03.113Z,86.87
2016-10-19T04:03:24.823Z,87.37
2016-10-19T04:03:46.542Z,87.49
2016-10-19T04:04:08.255Z,87.46
2016-10-19T04:04:29.986Z,87.36
2016-10-19T04:04:51.701Z,87.47
2016-10-19T04:05:13.422Z,87.54
2016-10-19T04:05:35.152Z,87.38
2016-10-19T04:05:56.868Z,87.21
2016-10-19T04:06:18.584Z,87.45
2016-10-19T04:06:40.296Z,87.44
2016-10-19T04:07:02.017Z,87.04
2016-10-19T04:07:23.743Z,86.74
2016-10-19T04:07:45.462Z,86.49
2016-10-19T04:08:07.288Z,86.66
2016-10-19T04:08:28.899Z,86.70
2016-10-19T04:08:50.615Z,86.83
2016-10-19T04:09:12.331Z,86.71
2016-10-19T04:09:34.055Z,87.03
2016-10-19T04:09:55.770Z,87.03
2016-10-19T04:10:17.494Z,87.14
2016-10-19T04:10:39.208Z,86.94
2016-10-19T04:11:00.933Z,87.31
2016-10-19T04:11:22.667Z,87.62
2016-10-19T04:11:44.389Z,87.89
2016-10-19T04:12:06.127Z,88.20
2016-10-19T04:12:27.852Z,88.41
2016-10-19T04:12:49.619Z,88.48
2016-10-19T04:13:11.342Z,88.02
2016-10-19T04:13:33.062Z,87.59
2016-10-19T04:13:54.785Z,87.92
2016-10-19T04:14:16.517Z,88.23
2016-10-19T04:14:38.247Z,88.33
2016-10-19T04:14:59.977Z,88.29
2016-10-19T04:15:21.692Z,88.41
2016-10-19T04:15:43.410Z,88.56
2016-10-19T04:16:05.129Z,88.62
2016-10-19T04:16:26.845Z,88.42
2016-10-19T04:16:48.568Z,88.34
2016-10-19T04:17:10.308Z,88.51
2016-10-19T04:17:32.035Z,88.42
2016-10-19T04:17:53.752Z,88.12
2016-10-19T04:18:17.873Z,87.87
2016-10-19T04:18:39.597Z,87.99
2016-10-19T04:19:01.336Z,88.19
2016-10-19T04:19:23.060Z,88.48
2016-10-19T04:19:44.781Z,88.79
2016-10-19T04:20:06.511Z,88.47
2016-10-19T04:20:28.229Z,88.11
2016-10-19T04:20:49.952Z,88.10
2016-10-19T04:21:11.683Z,88.38
2016-10-19T04:21:33.405Z,88.47
2016-10-19T04:21:55.118Z,88.41
2016-10-19T04:22:16.832Z,88.13
2016-10-19T04:22:38.547Z,88.01
2016-10-19T04:23:00.262Z,87.93
2016-10-19T04:23:22.044Z,88.23
2016-10-19T04:23:43.815Z,88.70
2016-10-19T04:24:05.528Z,88.90
2016-10-19T04:24:27.248Z,88.63
2016-10-19T04:24:48.968Z,88.65
2016-10-19T04:25:10.685Z,88.66
2016-10-19T04:25:32.422Z,88.55
2016-10-19T04:25:54.138Z,88.28
2016-10-19T04:26:15.863Z,88.13
2016-10-19T04:26:37.579Z,88.22
2016-10-19T04:26:59.293Z,88.08
2016-10-19T04:27:21.013Z,88.09
2016-10-19T04:27:42.734Z,87.99
2016-10-19T04:28:04.501Z,87.90
2016-10-19T04:28:26.219Z,87.95
2016-10-19T04:28:47.939Z,88.22
2016-10-19T04:29:09.669Z,88.23
2016-10-19T04:29:31.391Z,88.22
2016-10-19T04:29:53.111Z,88.07
2016-10-19T04:30:14.840Z,88.30
2016-10-19T04:30:36.563Z,88.51
2016-10-19T04:30:58.286Z,88.29
2016-10-19T04:31:20.005Z,88.29
2016-10-19T04:31:41.725Z,88.64
2016-10-19T04:32:03.440Z,88.84
2016-10-19T04:32:25.166Z,89.13
2016-10-19T04:32:46.891Z,88.98
2016-10-19T04:33:08.609Z,88.72
2016-10-19T04:33:30.343Z,88.64
2016-10-19T04:33:52.069Z,88.31
2016-10-19T04:34:13.791Z,88.25
2016-10-19T04:34:35.512Z,88.15
2016-10-19T04:34:57.227Z,87.84
2016-10-19T04:35:18.940Z,87.53
2016-10-19T04:35:40.656Z,87.54
2016-10-19T04:36:02.386Z,87.52
2016-10-19T04:36:24.107Z,87.61
2016-10-19T04:36:45.826Z,87.88
2016-10-19T04:37:07.548Z,88.12
2016-10-19T04:37:29.272Z,88.21
2016-10-19T04:37:51.005Z,88.26
2016-10-19T04:38:12.727Z,87.90
2016-10-19T04:38:34.504Z,87.83
2016-10-19T04:38:56.226Z,87.78
2016-10-19T04:39:17.944Z,87.80
2016-10-19T04:39:39.664Z,87.68
2016-10-19T04:40:01.383Z,87.62